Terminal Aerodrome Forecast
Issued by NWS

Home | Current Version | Previous Version | Text Only | Print | Product List | Glossary On
Versions: 1 2 3 4 5 6 7 8 9 10 11 12
000
FTUS44 KEPZ 200534
TAFTCS
TAF
KTCS 200534Z 2006/2106 30005KT P6SM FEW110 SCT250
     FM201900 21015G25KT P6SM FEW120
     FM210100 23011KT P6SM FEW250=

USA.gov is the U.S. government's official web portal to all federal, state and local government web resources and services.